sensor_id;sensor_type;location;lat;lon;timestamp;P1;durP1;ratioP1;P2;durP2;ratioP2
45322;SDS011;31382;50.200;8.674;2022-08-19T00:04:36;13.35;;;7.63;;
45322;SDS011;31382;50.200;8.674;2022-08-19T00:09:38;17.17;;;7.70;;
45322;SDS011;31382;50.200;8.674;2022-08-19T00:14:40;11.32;;;6.70;;
45322;SDS011;31382;50.200;8.674;2022-08-19T00:19:42;12.57;;;7.10;;
45322;SDS011;31382;50.200;8.674;2022-08-19T00:24:44;12.20;;;7.70;;
45322;SDS011;31382;50.200;8.674;2022-08-19T00:29:51;12.15;;;6.90;;
45322;SDS011;31382;50.200;8.674;2022-08-19T00:34:53;14.32;;;8.63;;
45322;SDS011;31382;50.200;8.674;2022-08-19T00:39:54;12.35;;;8.13;;
45322;SDS011;31382;50.200;8.674;2022-08-19T00:44:57;11.88;;;7.32;;
45322;SDS011;31382;50.200;8.674;2022-08-19T00:49:58;13.73;;;8.07;;
45322;SDS011;31382;50.200;8.674;2022-08-19T00:55:01;13.70;;;7.97;;
45322;SDS011;31382;50.200;8.674;2022-08-19T01:00:09;12.02;;;7.07;;
45322;SDS011;31382;50.200;8.674;2022-08-19T01:05:15;11.45;;;6.88;;
45322;SDS011;31382;50.200;8.674;2022-08-19T01:10:22;14.68;;;7.03;;
45322;SDS011;31382;50.200;8.674;2022-08-19T01:15:31;11.55;;;6.60;;
45322;SDS011;31382;50.200;8.674;2022-08-19T01:20:35;11.57;;;6.90;;
45322;SDS011;31382;50.200;8.674;2022-08-19T01:25:44;12.25;;;7.47;;
45322;SDS011;31382;50.200;8.674;2022-08-19T01:30:51;10.25;;;6.45;;
45322;SDS011;31382;50.200;8.674;2022-08-19T01:36:02;8.75;;;6.07;;
45322;SDS011;31382;50.200;8.674;2022-08-19T01:41:06;11.18;;;6.45;;
45322;SDS011;31382;50.200;8.674;2022-08-19T01:46:11;13.55;;;6.45;;
45322;SDS011;31382;50.200;8.674;2022-08-19T01:51:13;12.10;;;6.88;;
45322;SDS011;31382;50.200;8.674;2022-08-19T01:56:15;8.90;;;6.53;;
45322;SDS011;31382;50.200;8.674;2022-08-19T02:01:18;11.27;;;6.50;;
45322;SDS011;31382;50.200;8.674;2022-08-19T02:06:20;9.55;;;5.65;;
45322;SDS011;31382;50.200;8.674;2022-08-19T02:16:32;11.32;;;5.53;;
45322;SDS011;31382;50.200;8.674;2022-08-19T02:21:35;11.25;;;5.85;;
45322;SDS011;31382;50.200;8.674;2022-08-19T02:26:36;8.65;;;5.72;;
45322;SDS011;31382;50.200;8.674;2022-08-19T02:31:38;9.48;;;5.70;;
45322;SDS011;31382;50.200;8.674;2022-08-19T02:36:40;11.25;;;6.50;;
45322;SDS011;31382;50.200;8.674;2022-08-19T02:41:42;10.02;;;6.20;;
45322;SDS011;31382;50.200;8.674;2022-08-19T02:46:47;9.90;;;5.60;;
45322;SDS011;31382;50.200;8.674;2022-08-19T02:51:52;9.10;;;5.68;;
45322;SDS011;31382;50.200;8.674;2022-08-19T02:56:55;10.00;;;5.25;;
45322;SDS011;31382;50.200;8.674;2022-08-19T03:01:57;9.25;;;6.30;;
45322;SDS011;31382;50.200;8.674;2022-08-19T03:06:58;9.50;;;4.95;;
45322;SDS011;31382;50.200;8.674;2022-08-19T03:12:11;8.55;;;5.00;;
45322;SDS011;31382;50.200;8.674;2022-08-19T03:17:13;8.48;;;5.63;;
45322;SDS011;31382;50.200;8.674;2022-08-19T03:22:15;9.35;;;5.28;;
45322;SDS011;31382;50.200;8.674;2022-08-19T03:27:16;11.32;;;5.63;;
45322;SDS011;31382;50.200;8.674;2022-08-19T03:32:18;11.18;;;5.65;;
45322;SDS011;31382;50.200;8.674;2022-08-19T03:37:33;11.52;;;6.20;;
45322;SDS011;31382;50.200;8.674;2022-08-19T03:42:36;12.52;;;5.78;;
45322;SDS011;31382;50.200;8.674;2022-08-19T03:47:58;10.88;;;6.00;;
45322;SDS011;31382;50.200;8.674;2022-08-19T03:52:59;10.18;;;6.28;;
45322;SDS011;31382;50.200;8.674;2022-08-19T03:58:02;12.38;;;5.95;;
45322;SDS011;31382;50.200;8.674;2022-08-19T04:03:03;10.95;;;5.60;;
45322;SDS011;31382;50.200;8.674;2022-08-19T04:08:05;12.70;;;5.60;;
45322;SDS011;31382;50.200;8.674;2022-08-19T04:13:14;7.50;;;5.50;;
45322;SDS011;31382;50.200;8.674;2022-08-19T04:18:16;11.32;;;6.13;;
45322;SDS011;31382;50.200;8.674;2022-08-19T04:23:18;10.88;;;5.28;;
45322;SDS011;31382;50.200;8.674;2022-08-19T04:28:20;9.98;;;5.85;;
45322;SDS011;31382;50.200;8.674;2022-08-19T04:33:23;10.82;;;6.25;;
45322;SDS011;31382;50.200;8.674;2022-08-19T04:38:28;9.05;;;6.10;;
45322;SDS011;31382;50.200;8.674;2022-08-19T04:43:30;7.72;;;5.20;;
45322;SDS011;31382;50.200;8.674;2022-08-19T04:48:33;9.07;;;5.20;;
45322;SDS011;31382;50.200;8.674;2022-08-19T04:53:42;8.77;;;5.50;;
45322;SDS011;31382;50.200;8.674;2022-08-19T04:58:44;11.00;;;5.28;;
45322;SDS011;31382;50.200;8.674;2022-08-19T05:03:46;10.40;;;5.15;;
45322;SDS011;31382;50.200;8.674;2022-08-19T05:08:48;9.80;;;5.32;;
45322;SDS011;31382;50.200;8.674;2022-08-19T05:13:51;7.65;;;4.80;;
45322;SDS011;31382;50.200;8.674;2022-08-19T05:18:53;10.43;;;5.25;;
45322;SDS011;31382;50.200;8.674;2022-08-19T05:24:15;13.35;;;6.55;;
45322;SDS011;31382;50.200;8.674;2022-08-19T05:29:20;8.75;;;4.60;;
45322;SDS011;31382;50.200;8.674;2022-08-19T05:34:23;6.88;;;5.28;;
45322;SDS011;31382;50.200;8.674;2022-08-19T05:39:28;7.88;;;5.15;;
45322;SDS011;31382;50.200;8.674;2022-08-19T05:44:33;9.60;;;4.95;;
45322;SDS011;31382;50.200;8.674;2022-08-19T05:49:35;7.95;;;4.88;;
45322;SDS011;31382;50.200;8.674;2022-08-19T05:54:39;6.00;;;4.38;;
45322;SDS011;31382;50.200;8.674;2022-08-19T05:59:43;7.82;;;4.65;;
45322;SDS011;31382;50.200;8.674;2022-08-19T06:04:47;7.55;;;4.40;;
45322;SDS011;31382;50.200;8.674;2022-08-19T06:09:48;9.18;;;4.93;;
45322;SDS011;31382;50.200;8.674;2022-08-19T06:15:02;10.57;;;4.60;;
45322;SDS011;31382;50.200;8.674;2022-08-19T06:20:12;7.40;;;4.43;;
45322;SDS011;31382;50.200;8.674;2022-08-19T06:25:15;9.02;;;4.97;;
45322;SDS011;31382;50.200;8.674;2022-08-19T06:30:18;5.88;;;4.03;;
45322;SDS011;31382;50.200;8.674;2022-08-19T06:35:20;7.47;;;4.22;;
45322;SDS011;31382;50.200;8.674;2022-08-19T06:40:22;6.82;;;4.22;;
45322;SDS011;31382;50.200;8.674;2022-08-19T06:45:24;5.78;;;3.97;;
45322;SDS011;31382;50.200;8.674;2022-08-19T06:50:39;7.22;;;3.80;;
45322;SDS011;31382;50.200;8.674;2022-08-19T06:55:41;5.65;;;3.60;;
45322;SDS011;31382;50.200;8.674;2022-08-19T07:00:42;5.70;;;3.10;;
45322;SDS011;31382;50.200;8.674;2022-08-19T07:05:44;7.22;;;4.00;;
45322;SDS011;31382;50.200;8.674;2022-08-19T07:10:46;7.45;;;3.55;;
45322;SDS011;31382;50.200;8.674;2022-08-19T07:15:49;5.20;;;3.42;;
45322;SDS011;31382;50.200;8.674;2022-08-19T07:20:51;4.43;;;2.50;;
45322;SDS011;31382;50.200;8.674;2022-08-19T07:26:08;4.63;;;2.85;;
45322;SDS011;31382;50.200;8.674;2022-08-19T07:31:12;14.20;;;3.20;;
45322;SDS011;31382;50.200;8.674;2022-08-19T07:36:26;4.13;;;2.40;;
45322;SDS011;31382;50.200;8.674;2022-08-19T07:41:34;4.57;;;2.00;;
45322;SDS011;31382;50.200;8.674;2022-08-19T07:46:44;4.22;;;2.15;;
45322;SDS011;31382;50.200;8.674;2022-08-19T07:51:53;4.15;;;2.55;;
45322;SDS011;31382;50.200;8.674;2022-08-19T07:56:57;3.30;;;2.67;;
45322;SDS011;31382;50.200;8.674;2022-08-19T08:01:59;2.38;;;1.60;;
45322;SDS011;31382;50.200;8.674;2022-08-19T08:07:02;2.90;;;1.45;;
45322;SDS011;31382;50.200;8.674;2022-08-19T08:12:25;4.57;;;1.40;;
45322;SDS011;31382;50.200;8.674;2022-08-19T08:17:35;2.53;;;1.40;;
45322;SDS011;31382;50.200;8.674;2022-08-19T08:22:51;3.20;;;1.50;;
45322;SDS011;31382;50.200;8.674;2022-08-19T08:28:11;4.00;;;1.83;;
45322;SDS011;31382;50.200;8.674;2022-08-19T08:33:18;3.00;;;1.88;;
45322;SDS011;31382;50.200;8.674;2022-08-19T08:38:33;6.43;;;2.67;;
45322;SDS011;31382;50.200;8.674;2022-08-19T08:43:40;3.95;;;1.75;;
45322;SDS011;31382;50.200;8.674;2022-08-19T08:48:51;2.97;;;1.45;;
45322;SDS011;31382;50.200;8.674;2022-08-19T08:54:02;1.55;;;1.17;;
45322;SDS011;31382;50.200;8.674;2022-08-19T08:59:12;3.30;;;1.65;;
45322;SDS011;31382;50.200;8.674;2022-08-19T09:04:21;4.72;;;1.25;;
45322;SDS011;31382;50.200;8.674;2022-08-19T09:09:31;5.38;;;1.35;;
45322;SDS011;31382;50.200;8.674;2022-08-19T09:14:46;3.08;;;1.10;;
45322;SDS011;31382;50.200;8.674;2022-08-19T09:25:19;4.57;;;2.63;;
45322;SDS011;31382;50.200;8.674;2022-08-19T09:30:27;7.75;;;2.20;;
45322;SDS011;31382;50.200;8.674;2022-08-19T09:35:31;5.40;;;2.53;;
45322;SDS011;31382;50.200;8.674;2022-08-19T09:40:53;4.88;;;2.63;;
45322;SDS011;31382;50.200;8.674;2022-08-19T09:45:56;2.85;;;1.90;;
45322;SDS011;31382;50.200;8.674;2022-08-19T09:51:02;3.95;;;2.33;;
45322;SDS011;31382;50.200;8.674;2022-08-19T09:56:12;5.30;;;3.95;;
45322;SDS011;31382;50.200;8.674;2022-08-19T10:01:24;2.67;;;2.17;;
45322;SDS011;31382;50.200;8.674;2022-08-19T10:06:29;4.25;;;2.67;;
45322;SDS011;31382;50.200;8.674;2022-08-19T10:11:46;6.13;;;2.33;;
45322;SDS011;31382;50.200;8.674;2022-08-19T10:16:55;3.67;;;2.67;;
45322;SDS011;31382;50.200;8.674;2022-08-19T10:22:01;3.53;;;2.70;;
45322;SDS011;31382;50.200;8.674;2022-08-19T10:27:10;5.95;;;3.90;;
45322;SDS011;31382;50.200;8.674;2022-08-19T10:32:16;4.60;;;3.85;;
45322;SDS011;31382;50.200;8.674;2022-08-19T10:37:17;4.50;;;3.45;;
45322;SDS011;31382;50.200;8.674;2022-08-19T10:42:29;8.57;;;4.25;;
45322;SDS011;31382;50.200;8.674;2022-08-19T10:47:32;7.65;;;4.70;;
45322;SDS011;31382;50.200;8.674;2022-08-19T10:52:35;5.65;;;4.40;;
45322;SDS011;31382;50.200;8.674;2022-08-19T10:57:39;5.68;;;3.95;;
45322;SDS011;31382;50.200;8.674;2022-08-19T11:03:01;7.47;;;4.75;;
45322;SDS011;31382;50.200;8.674;2022-08-19T11:08:03;8.82;;;4.45;;
45322;SDS011;31382;50.200;8.674;2022-08-19T11:13:23;5.20;;;4.63;;
45322;SDS011;31382;50.200;8.674;2022-08-19T11:18:26;4.80;;;3.90;;
45322;SDS011;31382;50.200;8.674;2022-08-19T11:23:27;6.32;;;4.50;;
45322;SDS011;31382;50.200;8.674;2022-08-19T11:28:29;7.50;;;4.45;;
45322;SDS011;31382;50.200;8.674;2022-08-19T11:33:31;5.38;;;4.25;;
45322;SDS011;31382;50.200;8.674;2022-08-19T11:38:33;5.63;;;4.38;;
45322;SDS011;31382;50.200;8.674;2022-08-19T11:43:36;5.75;;;4.80;;
45322;SDS011;31382;50.200;8.674;2022-08-19T11:48:38;6.03;;;4.13;;
45322;SDS011;31382;50.200;8.674;2022-08-19T11:53:41;11.93;;;4.80;;
45322;SDS011;31382;50.200;8.674;2022-08-19T11:58:43;7.35;;;4.18;;
45322;SDS011;31382;50.200;8.674;2022-08-19T12:03:46;4.38;;;3.30;;
45322;SDS011;31382;50.200;8.674;2022-08-19T12:08:49;6.05;;;3.80;;
45322;SDS011;31382;50.200;8.674;2022-08-19T12:13:51;4.15;;;3.75;;
45322;SDS011;31382;50.200;8.674;2022-08-19T12:18:55;6.53;;;4.35;;
45322;SDS011;31382;50.200;8.674;2022-08-19T12:23:58;5.25;;;4.22;;
45322;SDS011;31382;50.200;8.674;2022-08-19T12:29:00;4.78;;;4.30;;
45322;SDS011;31382;50.200;8.674;2022-08-19T12:34:02;4.68;;;4.28;;
45322;SDS011;31382;50.200;8.674;2022-08-19T12:39:04;6.30;;;4.28;;
45322;SDS011;31382;50.200;8.674;2022-08-19T12:44:10;3.67;;;3.38;;
45322;SDS011;31382;50.200;8.674;2022-08-19T12:49:14;6.47;;;4.10;;
45322;SDS011;31382;50.200;8.674;2022-08-19T12:54:36;7.05;;;3.40;;
45322;SDS011;31382;50.200;8.674;2022-08-19T12:59:38;3.10;;;2.80;;
45322;SDS011;31382;50.200;8.674;2022-08-19T13:04:40;4.07;;;2.92;;
45322;SDS011;31382;50.200;8.674;2022-08-19T13:09:42;3.38;;;2.58;;
45322;SDS011;31382;50.200;8.674;2022-08-19T13:14:44;5.85;;;2.60;;
45322;SDS011;31382;50.200;8.674;2022-08-19T13:19:51;3.15;;;2.60;;
45322;SDS011;31382;50.200;8.674;2022-08-19T13:24:53;2.65;;;2.45;;
45322;SDS011;31382;50.200;8.674;2022-08-19T13:29:55;5.47;;;1.83;;
45322;SDS011;31382;50.200;8.674;2022-08-19T13:35:16;3.03;;;2.13;;
45322;SDS011;31382;50.200;8.674;2022-08-19T13:40:19;3.78;;;2.17;;
45322;SDS011;31382;50.200;8.674;2022-08-19T13:45:25;2.63;;;1.85;;
45322;SDS011;31382;50.200;8.674;2022-08-19T13:50:29;1.88;;;1.73;;
45322;SDS011;31382;50.200;8.674;2022-08-19T13:55:32;2.95;;;1.25;;
45322;SDS011;31382;50.200;8.674;2022-08-19T14:00:35;2.15;;;0.90;;
45322;SDS011;31382;50.200;8.674;2022-08-19T14:10:41;1.20;;;1.10;;
45322;SDS011;31382;50.200;8.674;2022-08-19T14:15:45;3.55;;;1.63;;
45322;SDS011;31382;50.200;8.674;2022-08-19T14:20:48;2.28;;;1.00;;
45322;SDS011;31382;50.200;8.674;2022-08-19T14:25:50;1.50;;;1.40;;
45322;SDS011;31382;50.200;8.674;2022-08-19T14:30:51;2.78;;;1.30;;
45322;SDS011;31382;50.200;8.674;2022-08-19T14:35:56;1.27;;;1.17;;
45322;SDS011;31382;50.200;8.674;2022-08-19T14:41:07;4.53;;;1.20;;
45322;SDS011;31382;50.200;8.674;2022-08-19T14:46:09;1.77;;;1.30;;
45322;SDS011;31382;50.200;8.674;2022-08-19T14:51:11;1.15;;;0.93;;
45322;SDS011;31382;50.200;8.674;2022-08-19T14:56:14;4.97;;;1.15;;
45322;SDS011;31382;50.200;8.674;2022-08-19T15:01:18;1.10;;;1.00;;
45322;SDS011;31382;50.200;8.674;2022-08-19T15:06:22;1.05;;;0.80;;
45322;SDS011;31382;50.200;8.674;2022-08-19T15:11:25;1.80;;;0.82;;
45322;SDS011;31382;50.200;8.674;2022-08-19T15:16:28;2.67;;;1.10;;
45322;SDS011;31382;50.200;8.674;2022-08-19T15:21:30;1.85;;;1.05;;
45322;SDS011;31382;50.200;8.674;2022-08-19T15:26:32;1.90;;;1.00;;
45322;SDS011;31382;50.200;8.674;2022-08-19T15:31:34;2.38;;;1.13;;
45322;SDS011;31382;50.200;8.674;2022-08-19T15:36:39;1.27;;;0.80;;
45322;SDS011;31382;50.200;8.674;2022-08-19T15:41:40;1.60;;;1.00;;
45322;SDS011;31382;50.200;8.674;2022-08-19T15:46:45;3.17;;;0.90;;
45322;SDS011;31382;50.200;8.674;2022-08-19T15:51:49;2.47;;;1.08;;
45322;SDS011;31382;50.200;8.674;2022-08-19T15:56:54;1.25;;;1.00;;
45322;SDS011;31382;50.200;8.674;2022-08-19T16:02:15;1.23;;;0.82;;
45322;SDS011;31382;50.200;8.674;2022-08-19T16:07:37;3.35;;;1.15;;
45322;SDS011;31382;50.200;8.674;2022-08-19T16:12:39;1.27;;;1.02;;
45322;SDS011;31382;50.200;8.674;2022-08-19T16:17:41;1.23;;;1.00;;
45322;SDS011;31382;50.200;8.674;2022-08-19T16:22:55;1.90;;;1.23;;
45322;SDS011;31382;50.200;8.674;2022-08-19T16:27:58;3.10;;;1.15;;
45322;SDS011;31382;50.200;8.674;2022-08-19T16:33:08;3.45;;;1.20;;
45322;SDS011;31382;50.200;8.674;2022-08-19T16:38:10;2.22;;;1.13;;
45322;SDS011;31382;50.200;8.674;2022-08-19T16:43:12;2.92;;;1.15;;
45322;SDS011;31382;50.200;8.674;2022-08-19T16:48:14;3.03;;;1.63;;
45322;SDS011;31382;50.200;8.674;2022-08-19T16:53:17;2.40;;;1.55;;
45322;SDS011;31382;50.200;8.674;2022-08-19T16:58:20;1.50;;;1.30;;
45322;SDS011;31382;50.200;8.674;2022-08-19T17:03:28;2.70;;;1.65;;
45322;SDS011;31382;50.200;8.674;2022-08-19T17:08:36;2.95;;;1.63;;
45322;SDS011;31382;50.200;8.674;2022-08-19T17:13:38;2.30;;;1.40;;
45322;SDS011;31382;50.200;8.674;2022-08-19T17:18:43;2.70;;;1.80;;
45322;SDS011;31382;50.200;8.674;2022-08-19T17:23:45;1.85;;;1.55;;
45322;SDS011;31382;50.200;8.674;2022-08-19T17:28:48;3.65;;;1.65;;
45322;SDS011;31382;50.200;8.674;2022-08-19T17:33:51;1.70;;;1.40;;
45322;SDS011;31382;50.200;8.674;2022-08-19T17:38:56;2.40;;;1.88;;
45322;SDS011;31382;50.200;8.674;2022-08-19T17:43:59;1.70;;;1.42;;
45322;SDS011;31382;50.200;8.674;2022-08-19T17:49:01;2.97;;;2.28;;
45322;SDS011;31382;50.200;8.674;2022-08-19T17:54:03;3.17;;;1.75;;
45322;SDS011;31382;50.200;8.674;2022-08-19T17:59:06;2.55;;;2.35;;
45322;SDS011;31382;50.200;8.674;2022-08-19T18:04:14;2.67;;;2.33;;
45322;SDS011;31382;50.200;8.674;2022-08-19T18:09:17;4.28;;;2.35;;
45322;SDS011;31382;50.200;8.674;2022-08-19T18:14:21;3.85;;;2.70;;
45322;SDS011;31382;50.200;8.674;2022-08-19T18:19:34;4.28;;;3.00;;
45322;SDS011;31382;50.200;8.674;2022-08-19T18:24:43;2.83;;;1.90;;
45322;SDS011;31382;50.200;8.674;2022-08-19T18:29:46;3.35;;;2.22;;
45322;SDS011;31382;50.200;8.674;2022-08-19T18:34:48;6.68;;;2.83;;
45322;SDS011;31382;50.200;8.674;2022-08-19T18:39:49;4.72;;;2.50;;
45322;SDS011;31382;50.200;8.674;2022-08-19T18:45:10;3.45;;;2.47;;
45322;SDS011;31382;50.200;8.674;2022-08-19T18:50:30;3.15;;;2.33;;
45322;SDS011;31382;50.200;8.674;2022-08-19T18:55:32;3.92;;;2.60;;
45322;SDS011;31382;50.200;8.674;2022-08-19T19:00:34;2.30;;;2.03;;
45322;SDS011;31382;50.200;8.674;2022-08-19T19:05:36;6.38;;;2.60;;
45322;SDS011;31382;50.200;8.674;2022-08-19T19:10:40;4.20;;;2.10;;
45322;SDS011;31382;50.200;8.674;2022-08-19T19:15:42;2.95;;;2.22;;
45322;SDS011;31382;50.200;8.674;2022-08-19T19:20:44;3.80;;;2.50;;
45322;SDS011;31382;50.200;8.674;2022-08-19T19:25:45;3.55;;;2.22;;
45322;SDS011;31382;50.200;8.674;2022-08-19T19:30:52;3.42;;;2.80;;
45322;SDS011;31382;50.200;8.674;2022-08-19T19:35:54;2.83;;;2.63;;
45322;SDS011;31382;50.200;8.674;2022-08-19T19:40:56;3.58;;;2.60;;
45322;SDS011;31382;50.200;8.674;2022-08-19T19:45:58;3.88;;;2.60;;
45322;SDS011;31382;50.200;8.674;2022-08-19T19:51:00;6.40;;;2.50;;
45322;SDS011;31382;50.200;8.674;2022-08-19T19:56:03;4.10;;;3.03;;
45322;SDS011;31382;50.200;8.674;2022-08-19T20:01:05;6.38;;;3.15;;
45322;SDS011;31382;50.200;8.674;2022-08-19T20:06:13;4.57;;;2.30;;
45322;SDS011;31382;50.200;8.674;2022-08-19T20:11:26;3.83;;;2.75;;
45322;SDS011;31382;50.200;8.674;2022-08-19T20:16:33;7.60;;;2.90;;
45322;SDS011;31382;50.200;8.674;2022-08-19T20:21:35;4.47;;;2.35;;
45322;SDS011;31382;50.200;8.674;2022-08-19T20:26:45;4.18;;;2.75;;
45322;SDS011;31382;50.200;8.674;2022-08-19T20:31:51;4.05;;;2.60;;
45322;SDS011;31382;50.200;8.674;2022-08-19T20:36:59;3.67;;;2.40;;
45322;SDS011;31382;50.200;8.674;2022-08-19T20:42:01;4.13;;;2.22;;
45322;SDS011;31382;50.200;8.674;2022-08-19T20:47:03;7.65;;;2.55;;
45322;SDS011;31382;50.200;8.674;2022-08-19T20:52:05;5.25;;;1.92;;
45322;SDS011;31382;50.200;8.674;2022-08-19T20:57:07;2.92;;;2.25;;
45322;SDS011;31382;50.200;8.674;2022-08-19T21:02:08;3.67;;;1.83;;
45322;SDS011;31382;50.200;8.674;2022-08-19T21:07:11;3.97;;;1.65;;
45322;SDS011;31382;50.200;8.674;2022-08-19T21:12:12;4.53;;;2.17;;
45322;SDS011;31382;50.200;8.674;2022-08-19T21:17:14;2.35;;;1.90;;
45322;SDS011;31382;50.200;8.674;2022-08-19T21:22:16;2.47;;;1.70;;
45322;SDS011;31382;50.200;8.674;2022-08-19T21:27:18;8.75;;;1.70;;
45322;SDS011;31382;50.200;8.674;2022-08-19T21:32:20;2.22;;;1.48;;
45322;SDS011;31382;50.200;8.674;2022-08-19T21:37:23;2.88;;;1.85;;
45322;SDS011;31382;50.200;8.674;2022-08-19T21:42:26;2.40;;;1.45;;
45322;SDS011;31382;50.200;8.674;2022-08-19T21:47:28;2.40;;;1.20;;
45322;SDS011;31382;50.200;8.674;2022-08-19T21:52:29;2.80;;;1.58;;
45322;SDS011;31382;50.200;8.674;2022-08-19T21:57:31;1.48;;;1.25;;
45322;SDS011;31382;50.200;8.674;2022-08-19T22:02:33;3.47;;;1.20;;
45322;SDS011;31382;50.200;8.674;2022-08-19T22:07:34;2.88;;;1.20;;
45322;SDS011;31382;50.200;8.674;2022-08-19T22:12:37;5.28;;;1.27;;
45322;SDS011;31382;50.200;8.674;2022-08-19T22:17:51;4.18;;;1.30;;
45322;SDS011;31382;50.200;8.674;2022-08-19T22:22:55;2.22;;;0.90;;
45322;SDS011;31382;50.200;8.674;2022-08-19T22:28:00;3.00;;;1.17;;
45322;SDS011;31382;50.200;8.674;2022-08-19T22:33:05;2.42;;;1.20;;
45322;SDS011;31382;50.200;8.674;2022-08-19T22:38:09;5.93;;;1.10;;
45322;SDS011;31382;50.200;8.674;2022-08-19T22:43:14;2.75;;;1.05;;
45322;SDS011;31382;50.200;8.674;2022-08-19T22:48:19;1.67;;;1.30;;
45322;SDS011;31382;50.200;8.674;2022-08-19T22:53:23;4.63;;;1.33;;
45322;SDS011;31382;50.200;8.674;2022-08-19T22:58:26;2.35;;;0.82;;
45322;SDS011;31382;50.200;8.674;2022-08-19T23:03:29;3.00;;;1.00;;
45322;SDS011;31382;50.200;8.674;2022-08-19T23:08:31;1.50;;;0.68;;
45322;SDS011;31382;50.200;8.674;2022-08-19T23:13:33;1.98;;;0.90;;
45322;SDS011;31382;50.200;8.674;2022-08-19T23:18:35;4.10;;;1.00;;
45322;SDS011;31382;50.200;8.674;2022-08-19T23:23:37;5.15;;;1.00;;
45322;SDS011;31382;50.200;8.674;2022-08-19T23:28:39;3.03;;;1.08;;
45322;SDS011;31382;50.200;8.674;2022-08-19T23:33:59;2.13;;;1.10;;
45322;SDS011;31382;50.200;8.674;2022-08-19T23:39:02;3.67;;;0.80;;
45322;SDS011;31382;50.200;8.674;2022-08-19T23:44:03;2.88;;;0.90;;
45322;SDS011;31382;50.200;8.674;2022-08-19T23:49:14;4.32;;;0.80;;
45322;SDS011;31382;50.200;8.674;2022-08-19T23:54:16;1.27;;;0.80;;
45322;SDS011;31382;50.200;8.674;2022-08-19T23:59:18;1.88;;;1.23;;
